sensor_id;sensor_type;location;lat;lon;timestamp;pressure;altitude;pressure_sealevel;temperature;humidity
29985;BME280;17387;42.690;23.328;2022-09-12T00:01:37;47607.91;;;-144.02;94.88
29985;BME280;17387;42.690;23.328;2022-09-12T00:04:03;47591.66;;;-144.02;94.33
29985;BME280;17387;42.690;23.328;2022-09-12T00:06:34;47585.56;;;-144.02;94.61
29985;BME280;17387;42.690;23.328;2022-09-12T00:09:06;47611.97;;;-144.02;94.73
29985;BME280;17387;42.690;23.328;2022-09-12T00:11:35;47697.28;;;-144.02;95.53
29985;BME280;17387;42.690;23.328;2022-09-12T00:14:02;47609.94;;;-144.02;94.54
29985;BME280;17387;42.690;23.328;2022-09-12T00:16:30;47575.44;;;-144.02;94.41
29985;BME280;17387;42.690;23.328;2022-09-12T00:18:56;47654.63;;;-144.02;94.05
29985;BME280;17387;42.690;23.328;2022-09-12T00:21:23;47628.22;;;-144.02;94.35
29985;BME280;17387;42.690;23.328;2022-09-12T00:23:49;47660.72;;;-144.02;93.80
29985;BME280;17387;42.690;23.328;2022-09-12T00:26:15;47620.09;;;-144.02;93.45
29985;BME280;17387;42.690;23.328;2022-09-12T00:28:41;47640.41;;;-144.02;93.31
29985;BME280;17387;42.690;23.328;2022-09-12T00:31:13;47648.53;;;-144.02;93.47
29985;BME280;17387;42.690;23.328;2022-09-12T00:33:40;47618.06;;;-144.02;92.94
29985;BME280;17387;42.690;23.328;2022-09-12T00:36:09;47646.50;;;-144.02;92.63
29985;BME280;17387;42.690;23.328;2022-09-12T00:38:35;47636.34;;;-144.02;92.21
29985;BME280;17387;42.690;23.328;2022-09-12T00:41:04;47668.84;;;-144.02;92.43
29985;BME280;17387;42.690;23.328;2022-09-12T00:46:01;47587.59;;;-144.02;92.16
29985;BME280;17387;42.690;23.328;2022-09-12T00:48:33;47632.28;;;-144.02;91.98
29985;BME280;17387;42.690;23.328;2022-09-12T00:50:59;47609.94;;;-144.02;92.19
29985;BME280;17387;42.690;23.328;2022-09-12T00:53:25;47624.16;;;-144.02;92.39
29985;BME280;17387;42.690;23.328;2022-09-12T00:55:51;47652.59;;;-144.02;92.69
29985;BME280;17387;42.690;23.328;2022-09-12T00:58:22;47640.41;;;-144.02;92.67
29985;BME280;17387;42.690;23.328;2022-09-12T01:00:48;47630.25;;;-144.02;92.50
29985;BME280;17387;42.690;23.328;2022-09-12T01:03:17;47636.34;;;-144.02;92.50
29985;BME280;17387;42.690;23.328;2022-09-12T01:05:58;47616.03;;;-144.02;92.64
29985;BME280;17387;42.690;23.328;2022-09-12T01:08:27;47597.75;;;-144.02;92.60
29985;BME280;17387;42.690;23.328;2022-09-12T01:10:53;47622.13;;;-144.02;92.45
29985;BME280;17387;42.690;23.328;2022-09-12T01:13:19;47628.22;;;-144.02;92.75
29985;BME280;17387;42.690;23.328;2022-09-12T01:15:45;47632.28;;;-144.02;92.29
29985;BME280;17387;42.690;23.328;2022-09-12T01:18:13;47599.78;;;-144.02;92.37
29985;BME280;17387;42.690;23.328;2022-09-12T01:28:40;47650.56;;;-144.02;92.54
29985;BME280;17387;42.690;23.328;2022-09-12T01:39:37;47607.91;;;-144.02;93.00
29985;BME280;17387;42.690;23.328;2022-09-12T01:45:04;47603.84;;;-144.02;92.92
29985;BME280;17387;42.690;23.328;2022-09-12T01:47:40;47656.66;;;-144.02;93.00
29985;BME280;17387;42.690;23.328;2022-09-12T01:50:11;47603.84;;;-144.02;92.51
29985;BME280;17387;42.690;23.328;2022-09-12T01:52:43;47660.72;;;-144.02;92.90
29985;BME280;17387;42.690;23.328;2022-09-12T01:55:17;47599.78;;;-144.02;92.43
29985;BME280;17387;42.690;23.328;2022-09-12T01:58:15;47654.63;;;-144.02;92.65
29985;BME280;17387;42.690;23.328;2022-09-12T02:00:53;47636.34;;;-144.02;92.78
29985;BME280;17387;42.690;23.328;2022-09-12T02:03:26;47616.03;;;-144.02;92.05
29985;BME280;17387;42.690;23.328;2022-09-12T02:06:00;47624.16;;;-144.02;92.04
29985;BME280;17387;42.690;23.328;2022-09-12T02:08:33;47611.97;;;-144.02;91.88
29985;BME280;17387;42.690;23.328;2022-09-12T02:11:06;47614.00;;;-144.02;91.66
29985;BME280;17387;42.690;23.328;2022-09-12T02:16:15;47701.34;;;-144.02;91.80
29985;BME280;17387;42.690;23.328;2022-09-12T02:18:49;47648.53;;;-144.02;91.89
29985;BME280;17387;42.690;23.328;2022-09-12T02:21:18;47666.81;;;-144.02;91.92
29985;BME280;17387;42.690;23.328;2022-09-12T02:23:47;47628.22;;;-144.02;92.11
29985;BME280;17387;42.690;23.328;2022-09-12T02:26:20;47664.78;;;-144.02;92.03
29985;BME280;17387;42.690;23.328;2022-09-12T02:28:48;47666.81;;;-144.02;91.77
29985;BME280;17387;42.690;23.328;2022-09-12T02:31:23;47599.78;;;-144.02;91.90
29985;BME280;17387;42.690;23.328;2022-09-12T02:34:09;47642.44;;;-144.02;91.48
29985;BME280;17387;42.690;23.328;2022-09-12T02:39:11;47616.03;;;-144.02;90.76
29985;BME280;17387;42.690;23.328;2022-09-12T02:41:36;47644.47;;;-144.02;90.58
29985;BME280;17387;42.690;23.328;2022-09-12T02:44:02;47648.53;;;-144.02;90.03
29985;BME280;17387;42.690;23.328;2022-09-12T02:46:42;47624.16;;;-144.02;89.88
29985;BME280;17387;42.690;23.328;2022-09-12T02:49:08;47640.41;;;-144.02;90.33
29985;BME280;17387;42.690;23.328;2022-09-12T02:51:34;47616.03;;;-144.02;90.52
29985;BME280;17387;42.690;23.328;2022-09-12T02:54:00;47636.34;;;-144.02;90.12
29985;BME280;17387;42.690;23.328;2022-09-12T02:56:29;47632.28;;;-144.02;89.50
29985;BME280;17387;42.690;23.328;2022-09-12T02:59:04;47670.88;;;-144.02;89.76
29985;BME280;17387;42.690;23.328;2022-09-12T03:01:43;47664.78;;;-144.02;90.38
29985;BME280;17387;42.690;23.328;2022-09-12T03:23:27;47664.78;;;-144.02;90.97
29985;BME280;17387;42.690;23.328;2022-09-12T03:26:09;47591.66;;;-144.02;91.42
29985;BME280;17387;42.690;23.328;2022-09-12T03:28:38;47662.75;;;-144.02;91.22
29985;BME280;17387;42.690;23.328;2022-09-12T03:31:15;47599.78;;;-144.02;91.44
29985;BME280;17387;42.690;23.328;2022-09-12T03:33:41;47646.50;;;-144.02;91.41
29985;BME280;17387;42.690;23.328;2022-09-12T03:36:15;47662.75;;;-144.02;91.18
29985;BME280;17387;42.690;23.328;2022-09-12T03:38:43;47611.97;;;-144.02;91.06
29985;BME280;17387;42.690;23.328;2022-09-12T03:41:09;47648.53;;;-144.02;91.50
29985;BME280;17387;42.690;23.328;2022-09-12T03:43:34;47683.06;;;-144.02;91.73
29985;BME280;17387;42.690;23.328;2022-09-12T03:46:00;47717.59;;;-144.02;91.45
29985;BME280;17387;42.690;23.328;2022-09-12T03:48:25;47656.66;;;-144.02;91.46
29985;BME280;17387;42.690;23.328;2022-09-12T03:50:51;47658.69;;;-144.02;91.32
29985;BME280;17387;42.690;23.328;2022-09-12T03:53:16;47646.50;;;-144.02;91.65
29985;BME280;17387;42.690;23.328;2022-09-12T03:55:41;47685.09;;;-144.02;91.26
29985;BME280;17387;42.690;23.328;2022-09-12T03:58:07;47656.66;;;-144.02;91.24
29985;BME280;17387;42.690;23.328;2022-09-12T04:00:32;47648.53;;;-144.02;90.86
29985;BME280;17387;42.690;23.328;2022-09-12T04:02:58;47693.22;;;-144.02;91.33
29985;BME280;17387;42.690;23.328;2022-09-12T04:05:24;47648.53;;;-144.02;90.88
29985;BME280;17387;42.690;23.328;2022-09-12T04:07:50;47622.13;;;-144.02;90.84
29985;BME280;17387;42.690;23.328;2022-09-12T04:10:15;47683.06;;;-144.02;90.67
29985;BME280;17387;42.690;23.328;2022-09-12T04:12:41;47638.38;;;-144.02;90.03
29985;BME280;17387;42.690;23.328;2022-09-12T04:15:07;47611.97;;;-144.02;89.93
29985;BME280;17387;42.690;23.328;2022-09-12T04:17:33;47640.41;;;-144.02;89.56
29985;BME280;17387;42.690;23.328;2022-09-12T04:19:59;47601.81;;;-144.02;88.86
29985;BME280;17387;42.690;23.328;2022-09-12T04:22:24;47636.34;;;-144.02;89.07
29985;BME280;17387;42.690;23.328;2022-09-12T04:24:50;47648.53;;;-144.02;89.35
29985;BME280;17387;42.690;23.328;2022-09-12T04:27:15;47650.56;;;-144.02;89.11
29985;BME280;17387;42.690;23.328;2022-09-12T04:29:41;47595.72;;;-144.02;89.13
29985;BME280;17387;42.690;23.328;2022-09-12T04:32:06;47640.41;;;-144.02;88.72
29985;BME280;17387;42.690;23.328;2022-09-12T04:34:32;47662.75;;;-144.02;88.43
29985;BME280;17387;42.690;23.328;2022-09-12T04:36:57;47607.91;;;-144.02;88.28
29985;BME280;17387;42.690;23.328;2022-09-12T04:39:23;47620.09;;;-144.02;87.79
29985;BME280;17387;42.690;23.328;2022-09-12T04:41:48;47644.47;;;-144.02;87.53
29985;BME280;17387;42.690;23.328;2022-09-12T04:44:14;47595.72;;;-144.02;87.32
29985;BME280;17387;42.690;23.328;2022-09-12T04:46:42;47644.47;;;-144.02;87.08
29985;BME280;17387;42.690;23.328;2022-09-12T04:49:10;47620.09;;;-144.02;87.32
29985;BME280;17387;42.690;23.328;2022-09-12T04:51:37;47638.38;;;-144.02;86.82
29985;BME280;17387;42.690;23.328;2022-09-12T04:54:06;47664.78;;;-144.02;86.45
29985;BME280;17387;42.690;23.328;2022-09-12T04:56:31;47646.50;;;-144.02;86.30
29985;BME280;17387;42.690;23.328;2022-09-12T04:58:59;47668.84;;;-144.02;86.30
29985;BME280;17387;42.690;23.328;2022-09-12T05:01:26;47644.47;;;-144.02;86.07
29985;BME280;17387;42.690;23.328;2022-09-12T05:03:52;47636.34;;;-144.02;86.19
29985;BME280;17387;42.690;23.328;2022-09-12T05:06:20;47591.66;;;-144.02;85.66
29985;BME280;17387;42.690;23.328;2022-09-12T05:08:46;47624.16;;;-144.02;85.31
29985;BME280;17387;42.690;23.328;2022-09-12T05:11:16;47583.53;;;-144.02;84.94
29985;BME280;17387;42.690;23.328;2022-09-12T05:13:42;47624.16;;;-144.02;84.13
29985;BME280;17387;42.690;23.328;2022-09-12T05:16:10;47650.56;;;-144.02;83.42
29985;BME280;17387;42.690;23.328;2022-09-12T05:18:36;47638.38;;;-144.02;83.45
29985;BME280;17387;42.690;23.328;2022-09-12T05:21:04;47638.38;;;-144.02;83.16
29985;BME280;17387;42.690;23.328;2022-09-12T05:23:31;47646.50;;;-144.02;81.62
29985;BME280;17387;42.690;23.328;2022-09-12T05:25:58;47644.47;;;-144.02;81.81
29985;BME280;17387;42.690;23.328;2022-09-12T05:28:28;47644.47;;;-144.02;81.50
29985;BME280;17387;42.690;23.328;2022-09-12T05:31:10;47583.53;;;-144.02;81.09
29985;BME280;17387;42.690;23.328;2022-09-12T05:33:36;47573.38;;;-144.02;81.13
29985;BME280;17387;42.690;23.328;2022-09-12T05:36:04;47609.94;;;-144.02;81.20
29985;BME280;17387;42.690;23.328;2022-09-12T05:38:33;47670.88;;;-144.02;80.92
29985;BME280;17387;42.690;23.328;2022-09-12T05:41:07;47620.09;;;-144.02;81.01
29985;BME280;17387;42.690;23.328;2022-09-12T05:43:34;47585.56;;;-144.02;81.14
29985;BME280;17387;42.690;23.328;2022-09-12T05:46:01;47611.97;;;-144.02;80.97
29985;BME280;17387;42.690;23.328;2022-09-12T05:48:26;47707.44;;;-144.02;80.18
29985;BME280;17387;42.690;23.328;2022-09-12T05:50:58;47591.66;;;-144.02;78.76
29985;BME280;17387;42.690;23.328;2022-09-12T05:53:26;47607.91;;;-144.02;79.07
29985;BME280;17387;42.690;23.328;2022-09-12T05:56:01;47609.94;;;-144.02;78.52
29985;BME280;17387;42.690;23.328;2022-09-12T05:58:27;47599.78;;;-144.02;78.03
29985;BME280;17387;42.690;23.328;2022-09-12T06:00:52;47595.72;;;-144.02;77.16
29985;BME280;17387;42.690;23.328;2022-09-12T06:03:18;47589.63;;;-144.02;77.03
29985;BME280;17387;42.690;23.328;2022-09-12T06:05:43;47601.81;;;-144.02;76.50
29985;BME280;17387;42.690;23.328;2022-09-12T06:08:09;47563.22;;;-144.02;77.02
29985;BME280;17387;42.690;23.328;2022-09-12T06:10:35;47565.28;;;-144.02;77.18
29985;BME280;17387;42.690;23.328;2022-09-12T06:13:01;47614.00;;;-144.02;77.20
29985;BME280;17387;42.690;23.328;2022-09-12T06:15:28;47595.72;;;-144.02;77.33
29985;BME280;17387;42.690;23.328;2022-09-12T06:17:53;47587.59;;;-144.02;77.21
29985;BME280;17387;42.690;23.328;2022-09-12T06:20:18;47585.56;;;-144.02;76.62
29985;BME280;17387;42.690;23.328;2022-09-12T06:22:44;47589.63;;;-144.02;77.11
29985;BME280;17387;42.690;23.328;2022-09-12T06:25:09;47587.59;;;-144.02;77.40
29985;BME280;17387;42.690;23.328;2022-09-12T06:27:35;47605.88;;;-144.02;77.09
29985;BME280;17387;42.690;23.328;2022-09-12T06:30:00;47597.75;;;-144.02;76.63
29985;BME280;17387;42.690;23.328;2022-09-12T06:32:29;47579.47;;;-144.02;76.47
29985;BME280;17387;42.690;23.328;2022-09-12T06:34:54;47607.91;;;-144.02;76.92
29985;BME280;17387;42.690;23.328;2022-09-12T06:37:20;47603.84;;;-144.02;76.52
29985;BME280;17387;42.690;23.328;2022-09-12T06:39:45;47614.00;;;-144.02;76.49
29985;BME280;17387;42.690;23.328;2022-09-12T06:42:12;47565.28;;;-144.02;76.53
29985;BME280;17387;42.690;23.328;2022-09-12T06:44:39;47567.28;;;-144.02;76.11
29985;BME280;17387;42.690;23.328;2022-09-12T06:47:05;47620.09;;;-144.02;75.55
29985;BME280;17387;42.690;23.328;2022-09-12T06:49:31;47567.28;;;-144.02;75.80
29985;BME280;17387;42.690;23.328;2022-09-12T06:51:57;47603.84;;;-144.02;75.61
29985;BME280;17387;42.690;23.328;2022-09-12T06:54:23;47569.31;;;-144.02;75.02
29985;BME280;17387;42.690;23.328;2022-09-12T06:56:50;47579.47;;;-144.02;75.38
29985;BME280;17387;42.690;23.328;2022-09-12T06:59:16;47589.63;;;-144.02;74.80
29985;BME280;17387;42.690;23.328;2022-09-12T07:01:42;47605.88;;;-144.02;74.10
29985;BME280;17387;42.690;23.328;2022-09-12T07:04:08;47575.44;;;-144.02;75.00
29985;BME280;17387;42.690;23.328;2022-09-12T07:06:37;47616.03;;;-144.02;74.75
29985;BME280;17387;42.690;23.328;2022-09-12T07:09:05;47595.72;;;-144.02;75.10
29985;BME280;17387;42.690;23.328;2022-09-12T07:11:33;47559.19;;;-144.02;74.31
29985;BME280;17387;42.690;23.328;2022-09-12T07:14:00;47585.56;;;-144.02;73.63
29985;BME280;17387;42.690;23.328;2022-09-12T07:16:26;47603.84;;;-144.02;73.02
29985;BME280;17387;42.690;23.328;2022-09-12T07:18:54;47581.50;;;-144.02;70.39
29985;BME280;17387;42.690;23.328;2022-09-12T07:21:19;47599.78;;;-144.02;69.23
29985;BME280;17387;42.690;23.328;2022-09-12T07:23:45;47542.94;;;-144.02;67.40
29985;BME280;17387;42.690;23.328;2022-09-12T07:26:12;47593.69;;;-144.02;67.86
29985;BME280;17387;42.690;23.328;2022-09-12T07:28:38;47526.69;;;-144.02;68.31
29985;BME280;17387;42.690;23.328;2022-09-12T07:31:06;47555.13;;;-144.02;66.78
29985;BME280;17387;42.690;23.328;2022-09-12T07:33:33;47547.00;;;-144.02;65.85
29985;BME280;17387;42.690;23.328;2022-09-12T07:36:06;47599.78;;;-144.02;65.02
29985;BME280;17387;42.690;23.328;2022-09-12T07:38:33;47563.22;;;-144.02;66.07
29985;BME280;17387;42.690;23.328;2022-09-12T07:40:58;47555.13;;;-144.02;66.07
29985;BME280;17387;42.690;23.328;2022-09-12T07:43:25;47571.38;;;-144.02;65.48
29985;BME280;17387;42.690;23.328;2022-09-12T07:45:55;47557.16;;;-144.02;65.30
29985;BME280;17387;42.690;23.328;2022-09-12T07:48:21;47577.44;;;-144.02;64.99
29985;BME280;17387;42.690;23.328;2022-09-12T07:50:46;47589.63;;;-144.02;64.14
29985;BME280;17387;42.690;23.328;2022-09-12T07:53:12;47567.28;;;-144.02;63.67
29985;BME280;17387;42.690;23.328;2022-09-12T07:55:37;47542.94;;;-144.02;62.96
29985;BME280;17387;42.690;23.328;2022-09-12T07:58:03;47573.38;;;-144.02;62.94
29985;BME280;17387;42.690;23.328;2022-09-12T08:00:28;47567.28;;;-144.02;62.53
29985;BME280;17387;42.690;23.328;2022-09-12T08:02:59;47575.44;;;-144.02;62.60
29985;BME280;17387;42.690;23.328;2022-09-12T08:05:27;47561.22;;;-144.02;62.80
29985;BME280;17387;42.690;23.328;2022-09-12T08:07:54;47522.63;;;-144.02;62.39
29985;BME280;17387;42.690;23.328;2022-09-12T08:10:19;47522.63;;;-144.02;62.23
29985;BME280;17387;42.690;23.328;2022-09-12T08:12:45;47579.47;;;-144.02;63.09
29985;BME280;17387;42.690;23.328;2022-09-12T08:15:10;47536.84;;;-144.02;62.10
29985;BME280;17387;42.690;23.328;2022-09-12T08:17:35;47530.75;;;-144.02;61.92
29985;BME280;17387;42.690;23.328;2022-09-12T08:20:01;47603.84;;;-144.02;62.94
29985;BME280;17387;42.690;23.328;2022-09-12T08:22:29;47542.94;;;-144.02;63.08
29985;BME280;17387;42.690;23.328;2022-09-12T08:24:55;47551.06;;;-144.02;62.87
29985;BME280;17387;42.690;23.328;2022-09-12T08:27:20;47595.72;;;-144.02;62.02
29985;BME280;17387;42.690;23.328;2022-09-12T08:29:46;47565.28;;;-144.02;61.09
29985;BME280;17387;42.690;23.328;2022-09-12T08:32:11;47587.59;;;-144.02;61.68
29985;BME280;17387;42.690;23.328;2022-09-12T08:34:37;47522.63;;;-144.02;62.00
29985;BME280;17387;42.690;23.328;2022-09-12T08:37:02;47542.94;;;-144.02;61.25
29985;BME280;17387;42.690;23.328;2022-09-12T08:39:28;47542.94;;;-144.02;60.32
29985;BME280;17387;42.690;23.328;2022-09-12T08:41:58;47595.72;;;-144.02;60.43
29985;BME280;17387;42.690;23.328;2022-09-12T08:52:09;47555.13;;;-144.02;59.43
29985;BME280;17387;42.690;23.328;2022-09-12T08:54:36;47530.75;;;-144.02;59.54
29985;BME280;17387;42.690;23.328;2022-09-12T08:57:03;47534.81;;;-144.02;60.33
29985;BME280;17387;42.690;23.328;2022-09-12T08:59:37;47492.16;;;-144.02;60.33
29985;BME280;17387;42.690;23.328;2022-09-12T09:04:51;47581.50;;;-144.02;60.42
29985;BME280;17387;42.690;23.328;2022-09-12T09:07:24;47549.03;;;-144.02;59.13
29985;BME280;17387;42.690;23.328;2022-09-12T09:12:33;47579.47;;;-144.02;59.26
29985;BME280;17387;42.690;23.328;2022-09-12T09:17:40;47585.56;;;-144.02;58.04
29985;BME280;17387;42.690;23.328;2022-09-12T09:23:14;47522.63;;;-144.02;57.48
29985;BME280;17387;42.690;23.328;2022-09-12T09:26:00;47520.59;;;-144.02;58.04
29985;BME280;17387;42.690;23.328;2022-09-12T09:31:18;47534.81;;;-144.02;57.54
29985;BME280;17387;42.690;23.328;2022-09-12T09:33:47;47563.22;;;-144.02;57.70
29985;BME280;17387;42.690;23.328;2022-09-12T09:39:02;47559.19;;;-144.02;57.09
29985;BME280;17387;42.690;23.328;2022-09-12T09:41:53;47642.44;;;-144.02;56.82
29985;BME280;17387;42.690;23.328;2022-09-12T09:44:23;47544.97;;;-144.02;55.81
29985;BME280;17387;42.690;23.328;2022-09-12T09:46:53;47593.69;;;-144.02;56.78
29985;BME280;17387;42.690;23.328;2022-09-12T09:49:20;47522.63;;;-144.02;57.27
29985;BME280;17387;42.690;23.328;2022-09-12T09:51:46;47538.88;;;-144.02;57.81
29985;BME280;17387;42.690;23.328;2022-09-12T09:54:30;47532.78;;;-144.02;56.88
29985;BME280;17387;42.690;23.328;2022-09-12T09:56:57;47540.91;;;-144.02;55.95
29985;BME280;17387;42.690;23.328;2022-09-12T09:59:31;47538.88;;;-144.02;56.94
29985;BME280;17387;42.690;23.328;2022-09-12T10:04:33;47542.94;;;-144.02;56.41
29985;BME280;17387;42.690;23.328;2022-09-12T10:07:03;47522.63;;;-144.02;56.94
29985;BME280;17387;42.690;23.328;2022-09-12T10:09:32;47597.75;;;-144.02;56.60
29985;BME280;17387;42.690;23.328;2022-09-12T10:12:00;47475.91;;;-144.02;55.97
29985;BME280;17387;42.690;23.328;2022-09-12T10:14:40;47581.50;;;-144.02;54.56
29985;BME280;17387;42.690;23.328;2022-09-12T10:17:28;47510.44;;;-144.02;54.82
29985;BME280;17387;42.690;23.328;2022-09-12T10:19:55;47518.56;;;-144.02;53.82
29985;BME280;17387;42.690;23.328;2022-09-12T10:22:23;47514.50;;;-144.02;54.50
29985;BME280;17387;42.690;23.328;2022-09-12T10:24:52;47559.19;;;-144.02;54.86
29985;BME280;17387;42.690;23.328;2022-09-12T10:27:22;47538.88;;;-144.02;55.42
29985;BME280;17387;42.690;23.328;2022-09-12T10:30:16;47508.41;;;-144.02;54.50
29985;BME280;17387;42.690;23.328;2022-09-12T10:32:48;47516.53;;;-144.02;55.15
29985;BME280;17387;42.690;23.328;2022-09-12T10:35:21;47518.56;;;-144.02;54.49
29985;BME280;17387;42.690;23.328;2022-09-12T10:38:00;47518.56;;;-144.02;53.63
29985;BME280;17387;42.690;23.328;2022-09-12T10:40:34;47516.53;;;-144.02;51.94
29985;BME280;17387;42.690;23.328;2022-09-12T10:43:02;47510.44;;;-144.02;50.49
29985;BME280;17387;42.690;23.328;2022-09-12T10:45:40;47538.88;;;-144.02;49.48
29985;BME280;17387;42.690;23.328;2022-09-12T10:48:28;47563.22;;;-144.02;50.06
29985;BME280;17387;42.690;23.328;2022-09-12T10:50:55;47542.94;;;-144.02;51.14
29985;BME280;17387;42.690;23.328;2022-09-12T10:56:09;47504.34;;;-144.02;52.67
29985;BME280;17387;42.690;23.328;2022-09-12T11:28:42;47524.66;;;-144.02;52.38
29985;BME280;17387;42.690;23.328;2022-09-12T11:33:59;47512.47;;;-144.02;53.67
29985;BME280;17387;42.690;23.328;2022-09-12T11:39:15;47502.31;;;-144.02;54.37
29985;BME280;17387;42.690;23.328;2022-09-12T11:41:49;47520.59;;;-144.02;54.45
29985;BME280;17387;42.690;23.328;2022-09-12T11:44:23;47518.56;;;-144.02;54.09
29985;BME280;17387;42.690;23.328;2022-09-12T11:46:52;47530.75;;;-144.02;54.62
29985;BME280;17387;42.690;23.328;2022-09-12T11:49:28;47528.72;;;-144.02;54.33
29985;BME280;17387;42.690;23.328;2022-09-12T11:52:15;47547.00;;;-144.02;53.72
29985;BME280;17387;42.690;23.328;2022-09-12T11:55:02;47616.03;;;-144.02;53.08
29985;BME280;17387;42.690;23.328;2022-09-12T11:57:48;47526.69;;;-144.02;53.11
29985;BME280;17387;42.690;23.328;2022-09-12T12:00:36;47526.69;;;-144.02;51.91
29985;BME280;17387;42.690;23.328;2022-09-12T12:05:54;47512.47;;;-144.02;52.70
29985;BME280;17387;42.690;23.328;2022-09-12T12:08:23;47536.84;;;-144.02;52.16
29985;BME280;17387;42.690;23.328;2022-09-12T12:10:57;47494.19;;;-144.02;52.68
29985;BME280;17387;42.690;23.328;2022-09-12T12:16:30;47506.38;;;-144.02;51.69
29985;BME280;17387;42.690;23.328;2022-09-12T12:18:57;47512.47;;;-144.02;48.40
29985;BME280;17387;42.690;23.328;2022-09-12T12:21:51;47502.31;;;-144.02;48.05
29985;BME280;17387;42.690;23.328;2022-09-12T12:24:23;47557.16;;;-144.02;48.42
29985;BME280;17387;42.690;23.328;2022-09-12T12:34:35;47555.13;;;-144.02;51.42
29985;BME280;17387;42.690;23.328;2022-09-12T12:48:00;47490.13;;;-144.02;50.60
29985;BME280;17387;42.690;23.328;2022-09-12T12:50:30;47544.97;;;-144.02;52.24
29985;BME280;17387;42.690;23.328;2022-09-12T12:53:04;47514.50;;;-144.02;53.29
29985;BME280;17387;42.690;23.328;2022-09-12T12:55:32;47532.78;;;-144.02;53.02
29985;BME280;17387;42.690;23.328;2022-09-12T12:58:04;47522.63;;;-144.02;52.14
29985;BME280;17387;42.690;23.328;2022-09-12T13:00:35;47569.31;;;-144.02;51.27
29985;BME280;17387;42.690;23.328;2022-09-12T13:05:43;47579.47;;;-144.02;52.42
29985;BME280;17387;42.690;23.328;2022-09-12T13:08:28;47538.88;;;-144.02;54.09
29985;BME280;17387;42.690;23.328;2022-09-12T13:11:10;47524.66;;;-144.02;53.91
29985;BME280;17387;42.690;23.328;2022-09-12T13:13:57;47518.56;;;-144.02;53.38
29985;BME280;17387;42.690;23.328;2022-09-12T13:16:52;47534.81;;;-144.02;51.91
29985;BME280;17387;42.690;23.328;2022-09-12T13:19:27;47551.06;;;-144.02;52.67
29985;BME280;17387;42.690;23.328;2022-09-12T13:21:59;47559.19;;;-144.02;53.47
29985;BME280;17387;42.690;23.328;2022-09-12T13:24:25;47520.59;;;-144.02;54.09
29985;BME280;17387;42.690;23.328;2022-09-12T13:26:51;47522.63;;;-144.02;53.20
29985;BME280;17387;42.690;23.328;2022-09-12T13:29:19;47500.28;;;-144.02;49.87
29985;BME280;17387;42.690;23.328;2022-09-12T13:31:50;47492.16;;;-144.02;48.92
29985;BME280;17387;42.690;23.328;2022-09-12T13:34:21;47514.50;;;-144.02;46.71
29985;BME280;17387;42.690;23.328;2022-09-12T13:40:00;47465.75;;;-144.02;49.93
29985;BME280;17387;42.690;23.328;2022-09-12T13:42:47;47477.94;;;-144.02;49.36
29985;BME280;17387;42.690;23.328;2022-09-12T13:45:23;47506.38;;;-144.02;47.44
29985;BME280;17387;42.690;23.328;2022-09-12T13:48:00;47469.81;;;-144.02;46.79
29985;BME280;17387;42.690;23.328;2022-09-12T13:50:32;47461.69;;;-144.02;47.32
29985;BME280;17387;42.690;23.328;2022-09-12T13:53:03;47473.88;;;-144.02;47.37
29985;BME280;17387;42.690;23.328;2022-09-12T13:55:36;47514.50;;;-144.02;47.34
29985;BME280;17387;42.690;23.328;2022-09-12T14:03:39;47421.06;;;-144.02;45.21
29985;BME280;17387;42.690;23.328;2022-09-12T14:06:24;47510.44;;;-144.02;44.55
29985;BME280;17387;42.690;23.328;2022-09-12T14:08:52;47506.38;;;-144.02;45.15
29985;BME280;17387;42.690;23.328;2022-09-12T14:11:26;47477.94;;;-144.02;43.86
29985;BME280;17387;42.690;23.328;2022-09-12T14:13:53;47451.53;;;-144.02;45.38
29985;BME280;17387;42.690;23.328;2022-09-12T14:16:21;47477.94;;;-144.02;45.23
29985;BME280;17387;42.690;23.328;2022-09-12T14:18:48;47484.03;;;-144.02;45.56
29985;BME280;17387;42.690;23.328;2022-09-12T14:21:19;47484.03;;;-144.02;46.45
29985;BME280;17387;42.690;23.328;2022-09-12T14:23:51;47508.41;;;-144.02;46.22
29985;BME280;17387;42.690;23.328;2022-09-12T14:26:17;47461.69;;;-144.02;46.14
29985;BME280;17387;42.690;23.328;2022-09-12T14:28:44;47473.88;;;-144.02;45.61
29985;BME280;17387;42.690;23.328;2022-09-12T14:33:54;47488.09;;;-144.02;46.38
29985;BME280;17387;42.690;23.328;2022-09-12T14:38:54;47441.38;;;-144.02;46.58
29985;BME280;17387;42.690;23.328;2022-09-12T14:41:32;47514.50;;;-144.02;46.78
29985;BME280;17387;42.690;23.328;2022-09-12T14:44:03;47510.44;;;-144.02;47.48
29985;BME280;17387;42.690;23.328;2022-09-12T14:46:35;47473.88;;;-144.02;47.13
29985;BME280;17387;42.690;23.328;2022-09-12T14:51:38;47567.28;;;-144.02;48.91
29985;BME280;17387;42.690;23.328;2022-09-12T14:54:04;47518.56;;;-144.02;50.10
29985;BME280;17387;42.690;23.328;2022-09-12T14:56:41;47518.56;;;-144.02;50.99
29985;BME280;17387;42.690;23.328;2022-09-12T15:04:45;47530.75;;;-144.02;53.13
29985;BME280;17387;42.690;23.328;2022-09-12T15:07:43;47551.06;;;-144.02;53.19
29985;BME280;17387;42.690;23.328;2022-09-12T15:15:30;47506.38;;;-144.02;55.48
29985;BME280;17387;42.690;23.328;2022-09-12T15:17:56;47528.72;;;-144.02;55.83
29985;BME280;17387;42.690;23.328;2022-09-12T15:20:22;47538.88;;;-144.02;55.75
29985;BME280;17387;42.690;23.328;2022-09-12T15:22:49;47567.28;;;-144.02;56.09
29985;BME280;17387;42.690;23.328;2022-09-12T15:25:15;47522.63;;;-144.02;55.95
29985;BME280;17387;42.690;23.328;2022-09-12T15:27:42;47534.81;;;-144.02;57.15
29985;BME280;17387;42.690;23.328;2022-09-12T15:30:08;47534.81;;;-144.02;57.07